map of BIL home
BIL - Airport
Location
City:  Billings, Montana, United States
Name:Billings Logan International Airport
ICAO:KBIL
IATA:BIL
FAA LID:BIL

Details
Type:Airport (Part 139 Class I)
Use:Public/Civil
Latitude:4548'28"N (45.807849)
Longitude:10832'37"W (-108.543543)
Datum:WGS 1984
Elevation:3662 ft (1116 m)
Variation:10.63E (WMM2015v2 magnetic declination)
-0.09 annual change
Runways:3
Longest:10518 × 150 ft (3206 × 45.5 m), paved

Time
Time Zone:UTC-7 (DST-6)
Local Time:

Weather
METAR:KBIL 041353Z 05010KT 10SM OVC030 M22/M25 A2994 RMK AO2 SLP230 T12221250
TAF:KBIL 041120Z 0412/0512 06009KT P6SM -SN SCT010 BKN035 OVC050

Related Locations
Nearby:
Farthest:RRG: 10577 mi / 17022 km
Plaine Corail [Sir Gatan Duval Airport (Plaine Corail Airport)], Rodrigues Island, MU

Find:

   beyond  
but within

Other Information
Maps:
Delays:
NOTAMs:
Links:
Sources:

  
  • flag of United States
  • flag of Montana
  

Airport Diagram

Airport diagram for BIL

Airport diagram PDF from FAA

Sectional Chart

Flight Planning
at skyvector.com

Satellite Image

Google Maps Satellite view

 

Copyright © 2004-2019 Karl L. Swartz. All rights reserved.
The Great Circle Mapper name and logo are trademarks of the Great Circle Mapper.
All other trademarks mentioned herein belong to their respective owners.
Please see credits for attibutions and further copyright information.

  Follow gcmap on Facebook Follow gcmap on Twitter GCmap on LinkedIn

hCard Microformat

Geo Microformat